Redding Municipal Airport
KRDD : now visible

Airfield :











YOU CAN JOIN US ON...

 
LOGIN :

Register | Disclaimer

   EN    FR    IT 

 









Legend :    VFR   Marginal VFR   IFR   Intensive IFR   Very Intensive IFR
Visi :
Ceiling :
>= 8 km
>= 3000ft
5 to 8 km
1000 to 3000 ft
1500m to 5 km
500 to 1000 ft
800 to 1500m
200 to 500 ft
< 800m
< 200 ft
Symbols :   Thunderstorms  Fog  Heavy snow  Heavy precipitations  Wind > 20 kt






- Airport Elevation : 505 ft
- IATA code : RDD


KRDD - Redding Municipal

CURRENT METAR :
  • 070353Z 31007KT 10SM CLR 16/02 A2990 RMK AO2 SLP121 T01560022 $

EXPIRED METARs :
  • 070253Z 30012G20KT 10SM CLR 17/02 A2989 RMK AO2 SLP115 T01720017 53020 $
  • 070153Z 31014G27KT 10SM CLR 19/02 A2986 RMK AO2 PK WND 29027/0147 SLP106 T01890022 $

TAF KRDD
Valid from the 07 at 00:00 until the 08 at 00:00 UTC


062332Z 0700/0724 28012G25KT P6SM VCSH SCT050 BKN100
FM070500 31009KT P6SM SCT080
FM071200 18005KT P6SM BKN060
FM071800 30005G15KT P6SM OVC100
KZOA FIR / North America



MET'MAP, your aeronautical weather chart ! - Copyright ORBIFLY December 2007 - Disclaimer

ORBIFLY MET'MAP TEAM :

Programming & Development : Alexandra Zaïnal
Concept & original design : Baudouin d'Aumeries
Assistance for programming : Marc-Olivier Méhu
Technical & hardware support : Manuel Goepfert

Contact : metmap@orbifly.com




SOURCES & CREDITS :

   NOAA       Earth
Advisory